sensor_id;sensor_type;location;lat;lon;timestamp;P1;durP1;ratioP1;P2;durP2;ratioP2
53835;SDS011;39737;43.334;21.936;2023-11-19T00:00:32;0.68;;;0.52;;
53835;SDS011;39737;43.334;21.936;2023-11-19T00:03:36;89.68;;;84.97;;
53835;SDS011;39737;43.334;21.936;2023-11-19T00:06:23;67.32;;;63.78;;
53835;SDS011;39737;43.334;21.936;2023-11-19T00:09:09;240.02;;;227.77;;
53835;SDS011;39737;43.334;21.936;2023-11-19T00:11:55;186.48;;;174.93;;
53835;SDS011;39737;43.334;21.936;2023-11-19T00:14:41;83.95;;;77.95;;
53835;SDS011;39737;43.334;21.936;2023-11-19T00:17:27;284.30;;;263.35;;
53835;SDS011;39737;43.334;21.936;2023-11-19T00:20:14;412.20;;;330.50;;
53835;SDS011;39737;43.334;21.936;2023-11-19T00:23:00;409.50;;;330.73;;
53835;SDS011;39737;43.334;21.936;2023-11-19T00:25:48;435.15;;;320.73;;
53835;SDS011;39737;43.334;21.936;2023-11-19T00:28:34;556.88;;;360.23;;
53835;SDS011;39737;43.334;21.936;2023-11-19T00:31:22;384.40;;;303.65;;
53835;SDS011;39737;43.334;21.936;2023-11-19T00:34:09;647.38;;;367.10;;
53835;SDS011;39737;43.334;21.936;2023-11-19T00:36:56;641.47;;;364.85;;
53835;SDS011;39737;43.334;21.936;2023-11-19T00:39:42;441.73;;;325.65;;
53835;SDS011;39737;43.334;21.936;2023-11-19T00:42:32;534.78;;;355.20;;
53835;SDS011;39737;43.334;21.936;2023-11-19T00:45:18;780.42;;;393.20;;
53835;SDS011;39737;43.334;21.936;2023-11-19T00:48:04;782.42;;;401.30;;
53835;SDS011;39737;43.334;21.936;2023-11-19T00:50:51;781.40;;;399.95;;
53835;SDS011;39737;43.334;21.936;2023-11-19T00:53:37;782.95;;;392.75;;
53835;SDS011;39737;43.334;21.936;2023-11-19T00:56:23;758.00;;;387.23;;
53835;SDS011;39737;43.334;21.936;2023-11-19T00:59:10;849.67;;;404.25;;
53835;SDS011;39737;43.334;21.936;2023-11-19T01:01:56;639.45;;;355.90;;
53835;SDS011;39737;43.334;21.936;2023-11-19T01:04:43;737.88;;;381.88;;
53835;SDS011;39737;43.334;21.936;2023-11-19T01:07:33;530.47;;;363.27;;
53835;SDS011;39737;43.334;21.936;2023-11-19T01:10:19;712.30;;;387.63;;
53835;SDS011;39737;43.334;21.936;2023-11-19T01:13:06;786.58;;;397.40;;
53835;SDS011;39737;43.334;21.936;2023-11-19T01:15:52;802.63;;;401.13;;
53835;SDS011;39737;43.334;21.936;2023-11-19T01:19:00;833.47;;;405.13;;
53835;SDS011;39737;43.334;21.936;2023-11-19T01:22:03;875.97;;;417.60;;
53835;SDS011;39737;43.334;21.936;2023-11-19T01:24:49;698.92;;;396.17;;
53835;SDS011;39737;43.334;21.936;2023-11-19T01:27:45;861.97;;;408.13;;
53835;SDS011;39737;43.334;21.936;2023-11-19T01:30:32;764.78;;;395.58;;
53835;SDS011;39737;43.334;21.936;2023-11-19T01:33:18;865.30;;;416.05;;
53835;SDS011;39737;43.334;21.936;2023-11-19T01:36:05;799.72;;;401.08;;
53835;SDS011;39737;43.334;21.936;2023-11-19T01:38:51;804.38;;;418.80;;
53835;SDS011;39737;43.334;21.936;2023-11-19T01:41:38;913.47;;;426.60;;
53835;SDS011;39737;43.334;21.936;2023-11-19T01:44:27;921.80;;;424.13;;
53835;SDS011;39737;43.334;21.936;2023-11-19T01:47:14;912.40;;;424.42;;
53835;SDS011;39737;43.334;21.936;2023-11-19T01:50:02;934.13;;;426.02;;
53835;SDS011;39737;43.334;21.936;2023-11-19T01:52:55;980.13;;;430.38;;
53835;SDS011;39737;43.334;21.936;2023-11-19T01:55:43;974.95;;;440.30;;
53835;SDS011;39737;43.334;21.936;2023-11-19T01:58:30;1015.03;;;448.65;;
53835;SDS011;39737;43.334;21.936;2023-11-19T02:01:16;994.22;;;452.10;;
53835;SDS011;39737;43.334;21.936;2023-11-19T02:04:03;737.93;;;411.90;;
53835;SDS011;39737;43.334;21.936;2023-11-19T02:06:50;1033.03;;;452.60;;
53835;SDS011;39737;43.334;21.936;2023-11-19T02:09:38;1094.43;;;457.52;;
53835;SDS011;39737;43.334;21.936;2023-11-19T02:12:24;1062.53;;;453.55;;
53835;SDS011;39737;43.334;21.936;2023-11-19T02:15:11;1030.60;;;450.17;;
53835;SDS011;39737;43.334;21.936;2023-11-19T02:17:57;967.92;;;446.40;;
53835;SDS011;39737;43.334;21.936;2023-11-19T02:20:43;930.65;;;443.75;;
53835;SDS011;39737;43.334;21.936;2023-11-19T02:23:48;962.60;;;448.70;;
53835;SDS011;39737;43.334;21.936;2023-11-19T02:29:21;731.87;;;412.97;;
53835;SDS011;39737;43.334;21.936;2023-11-19T02:32:07;978.30;;;449.97;;
53835;SDS011;39737;43.334;21.936;2023-11-19T02:34:55;1132.15;;;454.30;;
53835;SDS011;39737;43.334;21.936;2023-11-19T02:37:55;1184.20;;;448.13;;
53835;SDS011;39737;43.334;21.936;2023-11-19T02:41:02;788.30;;;408.65;;
53835;SDS011;39737;43.334;21.936;2023-11-19T02:43:51;934.28;;;431.15;;
53835;SDS011;39737;43.334;21.936;2023-11-19T02:46:40;1175.30;;;464.23;;
53835;SDS011;39737;43.334;21.936;2023-11-19T02:49:33;673.83;;;409.63;;
53835;SDS011;39737;43.334;21.936;2023-11-19T02:52:19;730.97;;;416.45;;
53835;SDS011;39737;43.334;21.936;2023-11-19T02:55:06;1169.18;;;458.33;;
53835;SDS011;39737;43.334;21.936;2023-11-19T02:57:56;656.63;;;395.60;;
53835;SDS011;39737;43.334;21.936;2023-11-19T03:00:45;800.58;;;420.63;;
53835;SDS011;39737;43.334;21.936;2023-11-19T03:04:02;1053.50;;;441.60;;
53835;SDS011;39737;43.334;21.936;2023-11-19T03:06:49;1092.47;;;456.10;;
53835;SDS011;39737;43.334;21.936;2023-11-19T03:09:35;1137.33;;;445.53;;
53835;SDS011;39737;43.334;21.936;2023-11-19T03:12:21;1083.50;;;450.33;;
53835;SDS011;39737;43.334;21.936;2023-11-19T03:15:08;1141.97;;;450.20;;
53835;SDS011;39737;43.334;21.936;2023-11-19T03:18:00;608.42;;;373.63;;
53835;SDS011;39737;43.334;21.936;2023-11-19T03:20:46;812.63;;;433.40;;
53835;SDS011;39737;43.334;21.936;2023-11-19T03:23:33;605.78;;;386.90;;
53835;SDS011;39737;43.334;21.936;2023-11-19T03:26:19;957.65;;;440.13;;
53835;SDS011;39737;43.334;21.936;2023-11-19T03:29:05;1022.55;;;445.05;;
53835;SDS011;39737;43.334;21.936;2023-11-19T03:31:52;1064.10;;;446.88;;
53835;SDS011;39737;43.334;21.936;2023-11-19T03:34:38;1091.85;;;450.02;;
53835;SDS011;39737;43.334;21.936;2023-11-19T03:37:24;977.75;;;425.30;;
53835;SDS011;39737;43.334;21.936;2023-11-19T03:40:12;946.22;;;420.10;;
53835;SDS011;39737;43.334;21.936;2023-11-19T03:42:59;979.03;;;425.20;;
53835;SDS011;39737;43.334;21.936;2023-11-19T03:45:45;1004.63;;;438.05;;
53835;SDS011;39737;43.334;21.936;2023-11-19T03:48:32;1040.57;;;445.88;;
53835;SDS011;39737;43.334;21.936;2023-11-19T03:51:18;1028.35;;;433.52;;
53835;SDS011;39737;43.334;21.936;2023-11-19T03:54:05;1035.05;;;438.13;;
53835;SDS011;39737;43.334;21.936;2023-11-19T03:56:52;1041.45;;;439.08;;
53835;SDS011;39737;43.334;21.936;2023-11-19T03:59:39;1046.22;;;439.42;;
53835;SDS011;39737;43.334;21.936;2023-11-19T04:02:25;1095.97;;;441.40;;
53835;SDS011;39737;43.334;21.936;2023-11-19T04:05:15;885.95;;;405.10;;
53835;SDS011;39737;43.334;21.936;2023-11-19T04:08:01;982.72;;;423.52;;
53835;SDS011;39737;43.334;21.936;2023-11-19T04:10:47;1011.58;;;435.80;;
53835;SDS011;39737;43.334;21.936;2023-11-19T04:13:34;1043.82;;;444.67;;
53835;SDS011;39737;43.334;21.936;2023-11-19T04:16:25;955.42;;;417.02;;
53835;SDS011;39737;43.334;21.936;2023-11-19T04:19:11;1032.43;;;430.52;;
53835;SDS011;39737;43.334;21.936;2023-11-19T04:21:58;1054.28;;;439.95;;
53835;SDS011;39737;43.334;21.936;2023-11-19T04:24:44;1041.13;;;436.13;;
53835;SDS011;39737;43.334;21.936;2023-11-19T04:27:31;1082.67;;;437.80;;
53835;SDS011;39737;43.334;21.936;2023-11-19T04:30:18;1096.63;;;442.83;;
53835;SDS011;39737;43.334;21.936;2023-11-19T04:33:05;1070.32;;;444.33;;
53835;SDS011;39737;43.334;21.936;2023-11-19T04:35:51;1088.57;;;443.63;;
53835;SDS011;39737;43.334;21.936;2023-11-19T04:38:37;1091.82;;;449.65;;
53835;SDS011;39737;43.334;21.936;2023-11-19T04:41:29;1139.43;;;443.95;;
53835;SDS011;39737;43.334;21.936;2023-11-19T04:44:16;1142.80;;;448.38;;
53835;SDS011;39737;43.334;21.936;2023-11-19T04:47:02;945.63;;;433.73;;
53835;SDS011;39737;43.334;21.936;2023-11-19T04:49:48;1122.68;;;445.00;;
53835;SDS011;39737;43.334;21.936;2023-11-19T04:52:36;1090.18;;;456.73;;
53835;SDS011;39737;43.334;21.936;2023-11-19T04:55:22;998.20;;;443.25;;
53835;SDS011;39737;43.334;21.936;2023-11-19T04:58:09;1075.38;;;458.83;;
53835;SDS011;39737;43.334;21.936;2023-11-19T05:00:55;1107.80;;;468.23;;
53835;SDS011;39737;43.334;21.936;2023-11-19T05:04:01;1109.40;;;467.73;;
53835;SDS011;39737;43.334;21.936;2023-11-19T05:06:48;1101.10;;;459.38;;
53835;SDS011;39737;43.334;21.936;2023-11-19T05:09:34;1122.22;;;467.65;;
53835;SDS011;39737;43.334;21.936;2023-11-19T05:12:20;563.58;;;380.75;;
53835;SDS011;39737;43.334;21.936;2023-11-19T05:15:07;1060.85;;;461.35;;
53835;SDS011;39737;43.334;21.936;2023-11-19T05:17:53;1005.53;;;476.70;;
53835;SDS011;39737;43.334;21.936;2023-11-19T05:20:39;1009.83;;;455.15;;
53835;SDS011;39737;43.334;21.936;2023-11-19T05:23:26;1092.32;;;487.58;;
53835;SDS011;39737;43.334;21.936;2023-11-19T05:26:21;1066.25;;;479.05;;
53835;SDS011;39737;43.334;21.936;2023-11-19T05:29:08;1085.43;;;484.70;;
53835;SDS011;39737;43.334;21.936;2023-11-19T05:31:54;1080.60;;;480.73;;
53835;SDS011;39737;43.334;21.936;2023-11-19T05:34:42;1026.82;;;465.77;;
53835;SDS011;39737;43.334;21.936;2023-11-19T05:37:30;1012.80;;;447.55;;
53835;SDS011;39737;43.334;21.936;2023-11-19T05:40:17;1083.75;;;457.05;;
53835;SDS011;39737;43.334;21.936;2023-11-19T05:43:04;1097.60;;;465.63;;
53835;SDS011;39737;43.334;21.936;2023-11-19T05:45:50;1077.60;;;465.25;;
53835;SDS011;39737;43.334;21.936;2023-11-19T05:48:37;1122.50;;;471.50;;
53835;SDS011;39737;43.334;21.936;2023-11-19T05:51:25;1070.43;;;468.23;;
53835;SDS011;39737;43.334;21.936;2023-11-19T05:54:11;1093.25;;;479.48;;
53835;SDS011;39737;43.334;21.936;2023-11-19T06:00:14;1051.93;;;484.33;;
53835;SDS011;39737;43.334;21.936;2023-11-19T06:03:01;1137.78;;;480.65;;
53835;SDS011;39737;43.334;21.936;2023-11-19T06:05:51;1009.03;;;445.88;;
53835;SDS011;39737;43.334;21.936;2023-11-19T06:08:38;1093.45;;;466.55;;
53835;SDS011;39737;43.334;21.936;2023-11-19T06:11:24;1001.53;;;440.83;;
53835;SDS011;39737;43.334;21.936;2023-11-19T06:14:18;1098.05;;;470.95;;
53835;SDS011;39737;43.334;21.936;2023-11-19T06:17:11;1118.07;;;488.95;;
53835;SDS011;39737;43.334;21.936;2023-11-19T06:19:58;723.97;;;431.20;;
53835;SDS011;39737;43.334;21.936;2023-11-19T06:22:45;1111.43;;;492.15;;
53835;SDS011;39737;43.334;21.936;2023-11-19T06:25:31;1062.40;;;475.40;;
53835;SDS011;39737;43.334;21.936;2023-11-19T06:28:17;1047.70;;;462.60;;
53835;SDS011;39737;43.334;21.936;2023-11-19T06:31:03;971.60;;;443.70;;
53835;SDS011;39737;43.334;21.936;2023-11-19T06:33:50;1048.78;;;468.02;;
53835;SDS011;39737;43.334;21.936;2023-11-19T06:36:36;1124.05;;;468.10;;
53835;SDS011;39737;43.334;21.936;2023-11-19T06:39:22;1107.47;;;465.63;;
53835;SDS011;39737;43.334;21.936;2023-11-19T06:42:09;1160.97;;;480.25;;
53835;SDS011;39737;43.334;21.936;2023-11-19T06:44:55;1054.55;;;462.25;;
53835;SDS011;39737;43.334;21.936;2023-11-19T06:47:42;1124.03;;;474.38;;
53835;SDS011;39737;43.334;21.936;2023-11-19T06:50:29;1161.03;;;475.67;;
53835;SDS011;39737;43.334;21.936;2023-11-19T06:53:15;1136.32;;;471.20;;
53835;SDS011;39737;43.334;21.936;2023-11-19T06:56:01;1037.80;;;455.10;;
53835;SDS011;39737;43.334;21.936;2023-11-19T06:58:51;1037.18;;;461.52;;
53835;SDS011;39737;43.334;21.936;2023-11-19T07:01:38;1182.93;;;469.27;;
53835;SDS011;39737;43.334;21.936;2023-11-19T07:04:24;1232.13;;;473.08;;
53835;SDS011;39737;43.334;21.936;2023-11-19T07:07:10;1171.18;;;489.05;;
53835;SDS011;39737;43.334;21.936;2023-11-19T07:09:56;1222.88;;;470.05;;
53835;SDS011;39737;43.334;21.936;2023-11-19T07:12:42;1227.65;;;472.92;;
53835;SDS011;39737;43.334;21.936;2023-11-19T07:15:30;1235.70;;;476.45;;
53835;SDS011;39737;43.334;21.936;2023-11-19T07:18:16;1217.70;;;464.05;;
53835;SDS011;39737;43.334;21.936;2023-11-19T07:21:04;1202.88;;;472.98;;
53835;SDS011;39737;43.334;21.936;2023-11-19T07:23:50;1279.72;;;483.98;;
53835;SDS011;39737;43.334;21.936;2023-11-19T07:26:40;1203.68;;;467.48;;
53835;SDS011;39737;43.334;21.936;2023-11-19T07:29:27;1249.15;;;485.05;;
53835;SDS011;39737;43.334;21.936;2023-11-19T07:32:14;1220.85;;;497.02;;
53835;SDS011;39737;43.334;21.936;2023-11-19T07:35:00;1271.30;;;491.42;;
53835;SDS011;39737;43.334;21.936;2023-11-19T07:37:46;1293.00;;;495.48;;
53835;SDS011;39737;43.334;21.936;2023-11-19T07:40:33;1116.05;;;495.52;;
53835;SDS011;39737;43.334;21.936;2023-11-19T07:43:20;1272.85;;;501.65;;
53835;SDS011;39737;43.334;21.936;2023-11-19T07:46:10;1213.25;;;498.42;;
53835;SDS011;39737;43.334;21.936;2023-11-19T07:48:56;954.08;;;470.58;;
53835;SDS011;39737;43.334;21.936;2023-11-19T07:51:42;1240.15;;;510.80;;
53835;SDS011;39737;43.334;21.936;2023-11-19T07:54:31;1063.57;;;489.50;;
53835;SDS011;39737;43.334;21.936;2023-11-19T07:57:17;1246.85;;;556.10;;
53835;SDS011;39737;43.334;21.936;2023-11-19T08:00:06;1073.25;;;552.13;;
53835;SDS011;39737;43.334;21.936;2023-11-19T08:02:58;1221.82;;;578.45;;
53835;SDS011;39737;43.334;21.936;2023-11-19T08:05:45;1229.97;;;583.22;;
53835;SDS011;39737;43.334;21.936;2023-11-19T08:08:32;1172.88;;;571.08;;
53835;SDS011;39737;43.334;21.936;2023-11-19T08:11:19;1228.77;;;585.47;;
53835;SDS011;39737;43.334;21.936;2023-11-19T08:14:06;1240.53;;;587.22;;
53835;SDS011;39737;43.334;21.936;2023-11-19T08:16:52;1222.18;;;574.90;;
53835;SDS011;39737;43.334;21.936;2023-11-19T08:19:39;1243.85;;;577.10;;
53835;SDS011;39737;43.334;21.936;2023-11-19T08:22:25;1212.13;;;567.08;;
53835;SDS011;39737;43.334;21.936;2023-11-19T08:25:11;1261.05;;;544.72;;
53835;SDS011;39737;43.334;21.936;2023-11-19T08:27:57;1277.63;;;564.72;;
53835;SDS011;39737;43.334;21.936;2023-11-19T08:30:43;1032.78;;;506.80;;
53835;SDS011;39737;43.334;21.936;2023-11-19T08:33:30;1196.88;;;557.20;;
53835;SDS011;39737;43.334;21.936;2023-11-19T08:36:16;1101.82;;;535.97;;
53835;SDS011;39737;43.334;21.936;2023-11-19T08:39:03;1267.93;;;554.42;;
53835;SDS011;39737;43.334;21.936;2023-11-19T08:41:49;1190.78;;;539.10;;
53835;SDS011;39737;43.334;21.936;2023-11-19T08:44:36;383.98;;;362.38;;
53835;SDS011;39737;43.334;21.936;2023-11-19T08:47:22;496.97;;;459.30;;
53835;SDS011;39737;43.334;21.936;2023-11-19T08:50:09;531.25;;;477.73;;
53835;SDS011;39737;43.334;21.936;2023-11-19T08:52:55;529.63;;;472.10;;
53835;SDS011;39737;43.334;21.936;2023-11-19T08:55:42;487.95;;;440.27;;
53835;SDS011;39737;43.334;21.936;2023-11-19T08:58:28;518.33;;;464.17;;
53835;SDS011;39737;43.334;21.936;2023-11-19T09:01:14;578.95;;;464.08;;
53835;SDS011;39737;43.334;21.936;2023-11-19T09:04:01;605.60;;;469.95;;
53835;SDS011;39737;43.334;21.936;2023-11-19T09:06:47;640.22;;;457.30;;
53835;SDS011;39737;43.334;21.936;2023-11-19T09:09:33;647.15;;;482.92;;
53835;SDS011;39737;43.334;21.936;2023-11-19T09:12:21;651.03;;;477.27;;
53835;SDS011;39737;43.334;21.936;2023-11-19T09:15:08;668.70;;;478.17;;
53835;SDS011;39737;43.334;21.936;2023-11-19T09:17:56;693.30;;;476.33;;
53835;SDS011;39737;43.334;21.936;2023-11-19T09:20:42;722.47;;;486.15;;
53835;SDS011;39737;43.334;21.936;2023-11-19T09:23:29;745.70;;;494.47;;
53835;SDS011;39737;43.334;21.936;2023-11-19T09:26:18;706.90;;;475.77;;
53835;SDS011;39737;43.334;21.936;2023-11-19T09:29:04;776.08;;;497.60;;
53835;SDS011;39737;43.334;21.936;2023-11-19T09:31:51;800.50;;;487.17;;
53835;SDS011;39737;43.334;21.936;2023-11-19T09:34:37;856.80;;;513.55;;
53835;SDS011;39737;43.334;21.936;2023-11-19T09:37:23;875.80;;;523.28;;
53835;SDS011;39737;43.334;21.936;2023-11-19T09:40:10;843.00;;;538.92;;
53835;SDS011;39737;43.334;21.936;2023-11-19T09:43:00;668.15;;;608.35;;
53835;SDS011;39737;43.334;21.936;2023-11-19T09:48:33;1.75;;;1.45;;
53835;SDS011;39737;43.334;21.936;2023-11-19T09:51:20;3.30;;;1.48;;
53835;SDS011;39737;43.334;21.936;2023-11-19T09:54:06;2.20;;;1.00;;
53835;SDS011;39737;43.334;21.936;2023-11-19T09:56:56;4.78;;;1.60;;
53835;SDS011;39737;43.334;21.936;2023-11-19T09:59:46;1.75;;;1.10;;
53835;SDS011;39737;43.334;21.936;2023-11-19T10:02:36;4.03;;;2.20;;
53835;SDS011;39737;43.334;21.936;2023-11-19T10:05:23;3.95;;;2.90;;
53835;SDS011;39737;43.334;21.936;2023-11-19T10:08:09;4.53;;;3.47;;
53835;SDS011;39737;43.334;21.936;2023-11-19T10:10:56;6.97;;;2.10;;
53835;SDS011;39737;43.334;21.936;2023-11-19T10:13:43;2.70;;;1.55;;
53835;SDS011;39737;43.334;21.936;2023-11-19T10:16:30;9.98;;;4.57;;
53835;SDS011;39737;43.334;21.936;2023-11-19T10:19:20;11.00;;;5.57;;
53835;SDS011;39737;43.334;21.936;2023-11-19T10:22:06;5.15;;;2.83;;
53835;SDS011;39737;43.334;21.936;2023-11-19T10:24:53;7.60;;;3.45;;
53835;SDS011;39737;43.334;21.936;2023-11-19T10:27:41;3.40;;;2.38;;
53835;SDS011;39737;43.334;21.936;2023-11-19T10:30:30;17.02;;;9.02;;
53835;SDS011;39737;43.334;21.936;2023-11-19T10:33:16;13.48;;;6.25;;
53835;SDS011;39737;43.334;21.936;2023-11-19T10:36:06;9.77;;;3.70;;
53835;SDS011;39737;43.334;21.936;2023-11-19T10:38:53;36.05;;;17.85;;
53835;SDS011;39737;43.334;21.936;2023-11-19T10:41:39;8.73;;;5.10;;
53835;SDS011;39737;43.334;21.936;2023-11-19T10:44:32;14.43;;;5.72;;
53835;SDS011;39737;43.334;21.936;2023-11-19T10:47:22;26.42;;;11.30;;
53835;SDS011;39737;43.334;21.936;2023-11-19T10:50:12;11.55;;;5.18;;
53835;SDS011;39737;43.334;21.936;2023-11-19T10:52:58;16.30;;;7.38;;
53835;SDS011;39737;43.334;21.936;2023-11-19T10:55:47;26.13;;;9.85;;
53835;SDS011;39737;43.334;21.936;2023-11-19T10:58:33;21.95;;;10.75;;
53835;SDS011;39737;43.334;21.936;2023-11-19T11:01:23;37.97;;;21.08;;
53835;SDS011;39737;43.334;21.936;2023-11-19T11:04:13;12.90;;;6.97;;
53835;SDS011;39737;43.334;21.936;2023-11-19T11:07:01;27.02;;;11.85;;
53835;SDS011;39737;43.334;21.936;2023-11-19T11:09:48;19.63;;;7.93;;
53835;SDS011;39737;43.334;21.936;2023-11-19T11:12:36;10.57;;;5.78;;
53835;SDS011;39737;43.334;21.936;2023-11-19T11:15:22;13.18;;;6.50;;
53835;SDS011;39737;43.334;21.936;2023-11-19T11:18:10;15.07;;;7.47;;
53835;SDS011;39737;43.334;21.936;2023-11-19T11:20:59;12.00;;;6.47;;
53835;SDS011;39737;43.334;21.936;2023-11-19T11:23:52;11.60;;;5.85;;
53835;SDS011;39737;43.334;21.936;2023-11-19T11:29:37;14.05;;;6.38;;
53835;SDS011;39737;43.334;21.936;2023-11-19T11:32:42;8.13;;;4.75;;
53835;SDS011;39737;43.334;21.936;2023-11-19T11:35:53;13.00;;;6.20;;
53835;SDS011;39737;43.334;21.936;2023-11-19T11:38:46;37.38;;;12.90;;
53835;SDS011;39737;43.334;21.936;2023-11-19T11:41:36;71.55;;;23.02;;
53835;SDS011;39737;43.334;21.936;2023-11-19T11:44:57;94.78;;;88.65;;
53835;SDS011;39737;43.334;21.936;2023-11-19T11:50:30;307.88;;;291.88;;
53835;SDS011;39737;43.334;21.936;2023-11-19T11:53:16;416.50;;;394.30;;
53835;SDS011;39737;43.334;21.936;2023-11-19T11:56:13;352.00;;;333.20;;
53835;SDS011;39737;43.334;21.936;2023-11-19T11:59:00;547.42;;;516.70;;
53835;SDS011;39737;43.334;21.936;2023-11-19T12:02:04;560.22;;;527.65;;
53835;SDS011;39737;43.334;21.936;2023-11-19T12:04:53;184.23;;;173.50;;
53835;SDS011;39737;43.334;21.936;2023-11-19T12:07:39;510.80;;;483.55;;
53835;SDS011;39737;43.334;21.936;2023-11-19T12:10:25;609.13;;;574.20;;
53835;SDS011;39737;43.334;21.936;2023-11-19T12:13:14;615.67;;;573.22;;
53835;SDS011;39737;43.334;21.936;2023-11-19T12:18:48;625.55;;;578.83;;
53835;SDS011;39737;43.334;21.936;2023-11-19T12:21:35;628.92;;;575.60;;
53835;SDS011;39737;43.334;21.936;2023-11-19T12:24:28;638.75;;;582.63;;
53835;SDS011;39737;43.334;21.936;2023-11-19T12:27:14;675.30;;;619.50;;
53835;SDS011;39737;43.334;21.936;2023-11-19T12:30:02;685.25;;;627.85;;
53835;SDS011;39737;43.334;21.936;2023-11-19T12:32:52;682.63;;;626.50;;
53835;SDS011;39737;43.334;21.936;2023-11-19T12:35:40;707.42;;;650.97;;
53835;SDS011;39737;43.334;21.936;2023-11-19T12:38:26;712.97;;;657.38;;
53835;SDS011;39737;43.334;21.936;2023-11-19T12:41:13;715.50;;;657.30;;
53835;SDS011;39737;43.334;21.936;2023-11-19T12:44:10;688.13;;;629.22;;
53835;SDS011;39737;43.334;21.936;2023-11-19T12:49:57;697.78;;;632.35;;
53835;SDS011;39737;43.334;21.936;2023-11-19T12:52:47;715.58;;;649.78;;
53835;SDS011;39737;43.334;21.936;2023-11-19T12:55:40;717.95;;;657.17;;
53835;SDS011;39737;43.334;21.936;2023-11-19T12:58:36;720.88;;;664.90;;
53835;SDS011;39737;43.334;21.936;2023-11-19T13:01:22;732.42;;;670.67;;
53835;SDS011;39737;43.334;21.936;2023-11-19T13:04:16;708.45;;;647.53;;
53835;SDS011;39737;43.334;21.936;2023-11-19T13:07:03;690.17;;;622.97;;
53835;SDS011;39737;43.334;21.936;2023-11-19T13:09:51;702.35;;;634.08;;
53835;SDS011;39737;43.334;21.936;2023-11-19T13:12:59;728.25;;;659.10;;
53835;SDS011;39737;43.334;21.936;2023-11-19T13:15:45;683.07;;;621.33;;
53835;SDS011;39737;43.334;21.936;2023-11-19T13:18:32;686.50;;;614.43;;
53835;SDS011;39737;43.334;21.936;2023-11-19T13:21:21;679.50;;;604.47;;
53835;SDS011;39737;43.334;21.936;2023-11-19T13:24:09;682.83;;;608.42;;
53835;SDS011;39737;43.334;21.936;2023-11-19T13:26:58;712.92;;;637.80;;
53835;SDS011;39737;43.334;21.936;2023-11-19T13:29:55;725.28;;;646.22;;
53835;SDS011;39737;43.334;21.936;2023-11-19T13:32:40;732.63;;;630.67;;
53835;SDS011;39737;43.334;21.936;2023-11-19T13:35:27;762.83;;;634.08;;
53835;SDS011;39737;43.334;21.936;2023-11-19T13:38:14;676.88;;;605.58;;
53835;SDS011;39737;43.334;21.936;2023-11-19T13:41:01;756.85;;;603.53;;
53835;SDS011;39737;43.334;21.936;2023-11-19T13:43:55;759.88;;;626.70;;
53835;SDS011;39737;43.334;21.936;2023-11-19T13:46:44;726.70;;;624.38;;
53835;SDS011;39737;43.334;21.936;2023-11-19T13:49:32;758.05;;;639.60;;
53835;SDS011;39737;43.334;21.936;2023-11-19T13:52:19;751.63;;;644.80;;
53835;SDS011;39737;43.334;21.936;2023-11-19T13:55:06;774.70;;;648.15;;
53835;SDS011;39737;43.334;21.936;2023-11-19T13:57:53;753.83;;;657.20;;
53835;SDS011;39737;43.334;21.936;2023-11-19T14:00:39;776.08;;;656.97;;
53835;SDS011;39737;43.334;21.936;2023-11-19T14:03:28;758.70;;;655.78;;
53835;SDS011;39737;43.334;21.936;2023-11-19T14:06:17;732.50;;;653.53;;
53835;SDS011;39737;43.334;21.936;2023-11-19T14:09:03;772.72;;;649.22;;
53835;SDS011;39737;43.334;21.936;2023-11-19T14:11:52;792.10;;;646.47;;
53835;SDS011;39737;43.334;21.936;2023-11-19T14:14:39;821.30;;;647.70;;
53835;SDS011;39737;43.334;21.936;2023-11-19T14:17:26;808.33;;;649.42;;
53835;SDS011;39737;43.334;21.936;2023-11-19T14:20:13;799.90;;;652.70;;
53835;SDS011;39737;43.334;21.936;2023-11-19T14:22:59;820.10;;;642.80;;
53835;SDS011;39737;43.334;21.936;2023-11-19T14:25:45;864.03;;;648.78;;
53835;SDS011;39737;43.334;21.936;2023-11-19T14:28:31;645.80;;;586.17;;
53835;SDS011;39737;43.334;21.936;2023-11-19T14:31:18;797.95;;;641.08;;
53835;SDS011;39737;43.334;21.936;2023-11-19T14:34:04;659.78;;;591.03;;
53835;SDS011;39737;43.334;21.936;2023-11-19T14:36:50;879.80;;;642.92;;
53835;SDS011;39737;43.334;21.936;2023-11-19T14:39:37;849.13;;;648.35;;
53835;SDS011;39737;43.334;21.936;2023-11-19T14:42:25;855.90;;;631.38;;
53835;SDS011;39737;43.334;21.936;2023-11-19T14:45:13;922.95;;;641.67;;
53835;SDS011;39737;43.334;21.936;2023-11-19T14:48:00;951.92;;;651.65;;
53835;SDS011;39737;43.334;21.936;2023-11-19T14:50:47;940.97;;;646.92;;
53835;SDS011;39737;43.334;21.936;2023-11-19T14:56:56;960.13;;;641.35;;
53835;SDS011;39737;43.334;21.936;2023-11-19T14:59:44;991.40;;;643.47;;
53835;SDS011;39737;43.334;21.936;2023-11-19T15:02:30;918.40;;;636.15;;
53835;SDS011;39737;43.334;21.936;2023-11-19T15:05:16;966.65;;;630.28;;
53835;SDS011;39737;43.334;21.936;2023-11-19T15:08:03;1009.38;;;618.10;;
53835;SDS011;39737;43.334;21.936;2023-11-19T15:10:49;1059.78;;;638.00;;
53835;SDS011;39737;43.334;21.936;2023-11-19T15:13:36;1034.28;;;627.83;;
53835;SDS011;39737;43.334;21.936;2023-11-19T15:16:24;1000.78;;;622.47;;
53835;SDS011;39737;43.334;21.936;2023-11-19T15:19:24;997.20;;;622.05;;
53835;SDS011;39737;43.334;21.936;2023-11-19T15:22:10;796.23;;;568.00;;
53835;SDS011;39737;43.334;21.936;2023-11-19T15:24:57;1042.65;;;624.40;;
53835;SDS011;39737;43.334;21.936;2023-11-19T15:27:43;1079.05;;;630.55;;
53835;SDS011;39737;43.334;21.936;2023-11-19T15:30:30;1109.38;;;636.80;;
53835;SDS011;39737;43.334;21.936;2023-11-19T15:33:16;1154.43;;;634.60;;
53835;SDS011;39737;43.334;21.936;2023-11-19T15:36:03;863.90;;;590.25;;
53835;SDS011;39737;43.334;21.936;2023-11-19T15:38:55;1070.03;;;625.95;;
53835;SDS011;39737;43.334;21.936;2023-11-19T15:41:42;1118.57;;;623.65;;
53835;SDS011;39737;43.334;21.936;2023-11-19T15:44:28;1137.10;;;628.60;;
53835;SDS011;39737;43.334;21.936;2023-11-19T15:47:15;1193.47;;;632.33;;
53835;SDS011;39737;43.334;21.936;2023-11-19T15:50:02;1061.03;;;604.80;;
53835;SDS011;39737;43.334;21.936;2023-11-19T15:52:49;1035.30;;;597.90;;
53835;SDS011;39737;43.334;21.936;2023-11-19T15:55:35;1055.20;;;608.03;;
53835;SDS011;39737;43.334;21.936;2023-11-19T15:58:22;1184.97;;;622.80;;
53835;SDS011;39737;43.334;21.936;2023-11-19T16:01:08;1136.35;;;602.53;;
53835;SDS011;39737;43.334;21.936;2023-11-19T16:03:55;1077.70;;;585.00;;